Latest Weather Observations for Scone Airport

IDN60801

Issued at 1:35 pm EDT Saturday 1 November 2014 (issued every 30 minutes, with the page automatically refreshed every 10 minutes)

About weather observations | Map of weather stations | Latest weather observations for NSW | Other Formats
Station Details ID: 061363 Name: SCONE AIRPORT AWS Lat: -32.03 Lon: 150.83 Height: 221.4 m
Data from the previous 72 hours. | See also: Recent months at Scone Airport
Date/Time
EDT
Temp
°C
App
Temp
°C
Dew
Point
Rel
Hum
%
Delta-T
°C
Wind Press
QNH
hPa
Press
MSL
hPa
Rain
since 9 am
mm
Dir
 
Spd
km/h
Gust
km/h
Spd
kts
Gust
kts
01/01:30pm 33.7 24.3 10.3 24 13.7 NW 50 69 27 37 1002.7 1001.8 0.0
01/01:00pm 32.2 24.1 11.9 29 12.1 NW 46 69 25 37 1002.8 1001.9 0.0
01/12:30pm 33.4 25.8 11.9 27 12.8 NW 43 63 23 34 1003.3 1002.5 0.0
01/12:00pm 32.4 25.1 11.6 28 12.3 NW 41 72 22 39 1003.8 1003.0 0.0
01/11:31am 32.2 25.4 11.9 29 12.0 NW 39 70 21 38 1004.4 1003.6 0.0
01/11:30am 32.0 25.1 11.7 28 12.0 NNW 39 56 21 30 1004.4 1003.6 0.0
01/11:04am 32.0 27.2 11.7 28 12.0 NW 28 50 15 27 1005.2 1004.4 0.0
01/11:00am 31.8 27.5 12.1 30 11.7 NW 26 44 14 24 1005.5 1004.7 0.0
01/10:30am 30.7 27.0 11.6 31 11.2 NNW 22 41 12 22 1006.6 1006.1 0.0
01/10:00am 30.3 28.5 12.2 33 10.7 N 13 24 7 13 1006.5 1006.0 0.0
01/09:30am 30.1 28.1 11.6 32 10.8 NW 13 22 7 12 1006.8 1006.3 0.0
01/09:00am 28.2 25.1 12.1 37 9.4 NNE 20 35 11 19 1007.3 1006.7 -
01/08:30am 26.4 22.9 12.1 41 8.3 N 22 35 12 19 1007.8 1007.3 -
01/08:00am 26.3 23.3 12.4 42 8.1 N 20 32 11 17 1007.8 1007.3 -
01/07:30am 26.2 23.1 12.3 42 8.1 N 20 33 11 18 1007.8 1007.3 -
01/07:00am 25.1 22.7 12.7 46 7.2 N 17 24 9 13 1007.9 1007.4 -
01/06:30am 24.2 21.2 12.5 48 6.8 N 20 33 11 18 1007.9 1007.4 -
01/06:00am 24.0 21.1 12.3 48 6.8 N 19 30 10 16 1007.8 1007.3 -
01/05:30am 24.1 22.2 11.8 46 7.0 N 13 20 7 11 1007.8 1007.3 -
01/05:00am 24.9 21.7 11.1 42 7.8 NNW 19 28 10 15 1007.6 1007.1 -
01/04:30am 22.6 21.3 11.4 49 6.3 WSW 9 19 5 10 1007.5 1007.0 -
01/04:00am 20.6 19.9 11.5 56 5.1 S 6 11 3 6 1007.2 1006.6 -
01/03:30am 21.2 21.8 11.8 55 5.3 CALM 0 6 0 3 1007.7 1007.2 -
01/03:00am 22.7 22.5 12.9 54 5.7 NNW 6 9 3 5 1007.9 1007.4 -
01/02:30am 22.1 22.8 13.5 58 5.0 S 2 6 1 3 1008.3 1007.8 -
01/02:00am 23.1 22.7 13.0 53 5.9 NNW 7 11 4 6 1008.7 1008.2 0.0
01/01:30am 23.1 22.6 12.7 52 6.0 NNE 7 9 4 5 1009.1 1008.6 0.0
01/01:00am 23.5 23.0 12.8 51 6.2 NNW 7 11 4 6 1009.7 1009.2 0.0
01/12:30am 24.2 22.1 12.5 48 6.8 NW 15 20 8 11 1009.9 1009.4 0.0
01/12:00am 24.7 21.4 11.6 44 7.5 NW 20 32 11 17 1010.6 1010.1 0.0
 
Date/Time
EDT
Temp
°C
App
Temp
°C
Dew
Point
Rel
Hum
%
Delta-T
°C
Wind Press
QNH
hPa
Press
MSL
hPa
Rain
since 9 am
mm
Dir
 
Spd
km/h
Gust
km/h
Spd
kts
Gust
kts
31/11:30pm 24.3 21.5 12.6 48 6.8 NNW 19 26 10 14 1010.4 1009.9 0.0
31/11:00pm 24.3 22.0 12.9 49 6.7 NNW 17 22 9 12 1009.3 1008.8 0.0
31/10:57pm 23.8 21.3 13.4 52 6.1 NNW 19 22 10 12 1009.4 1008.9 0.0
31/10:30pm 25.8 18.2 11.9 42 8.0 WNW 43 61 23 33 1010.5 1010.0 0.0
31/10:00pm 27.4 18.9 10.6 35 9.6 WNW 46 67 25 36 1009.9 1009.4 0.0
31/09:58pm 27.6 19.4 10.3 34 9.8 NW 44 67 24 36 1009.7 1009.2 0.0
31/09:57pm 27.8 20.6 10.5 34 9.9 NW 39 52 21 28 1009.9 1009.4 0.0
31/09:52pm 28.2 16.0 10.4 33 10.1 NW 65 83 35 45 1009.2 1008.7 0.0
31/09:51pm 28.3 20.2 10.0 32 10.4 NW 43 83 23 45 1009.0 1008.5 0.0
31/09:47pm 26.3 20.1 7.8 31 10.0 NW 30 50 16 27 1009.3 1008.8 0.0
31/09:30pm 26.1 23.9 6.2 28 10.4 N 7 9 4 5 1007.8 1007.3 0.0
31/09:00pm 28.5 25.8 5.4 23 12.1 N 9 9 5 5 1007.8 1007.3 0.0
31/08:30pm 29.2 26.4 5.3 22 12.6 NNW 9 13 5 7 1007.7 1007.2 0.0
31/08:00pm 29.4 26.5 4.8 21 12.9 NNW 9 15 5 8 1007.3 1006.7 0.0
31/07:30pm 31.3 28.3 4.2 18 14.2 N 9 13 5 7 1006.8 1006.3 0.0
31/07:00pm 32.3 29.3 4.2 17 14.8 N 9 11 5 6 1006.5 1006.0 0.0
31/06:30pm 33.6 31.0 3.4 15 15.8 N 6 9 3 5 1006.4 1005.9 0.0
31/06:00pm 34.0 29.6 2.8 14 16.2 NNW 15 22 8 12 1006.6 1006.1 0.0
31/05:30pm 35.0 29.4 1.4 12 17.1 NW 20 28 11 15 1006.6 1006.1 0.0
31/05:00pm 34.5 28.9 -0.2 11 17.2 NNW 19 30 10 16 1007.0 1006.5 0.0
31/04:30pm 35.1 29.0 -2.5 9 18.0 NNW 20 30 11 16 1007.3 1006.7 0.0
31/04:00pm 35.7 29.1 -3.6 8 18.6 NW 22 32 12 17 1007.6 1007.1 0.0
31/03:30pm 36.3 30.3 -3.2 8 18.9 NNW 19 30 10 16 1007.9 1007.4 0.0
31/03:00pm 36.4 29.1 -3.1 8 19.0 WNW 26 35 14 19 1008.4 1007.9 0.0
31/02:30pm 36.1 31.0 -1.7 9 18.5 NW 15 28 8 15 1009.0 1008.5 0.0
31/02:00pm 35.5 29.4 -2.2 9 18.2 NW 20 32 11 17 1009.7 1009.2 0.0
31/01:30pm 35.5 29.4 -2.2 9 18.2 NNW 20 33 11 18 1010.2 1009.7 0.0
31/01:00pm 34.5 28.1 -1.5 10 17.5 WNW 22 28 12 15 1010.7 1010.2 0.0
31/12:30pm 35.1 29.4 -1.1 10 17.7 WNW 19 33 10 18 1011.3 1010.9 0.0
31/12:00pm 34.1 27.7 0.7 12 16.8 NNW 24 37 13 20 1012.2 1011.7 0.0
31/11:30am 33.4 26.3 -1.0 11 16.7 NNW 26 43 14 23 1012.5 1012.0 0.0
31/11:20am 34.2 26.5 -3.2 9 17.6 NNW 28 35 15 19 1012.6 1012.1 0.0
31/11:00am 32.8 28.9 -1.5 11 16.5 WNW 9 17 5 9 1012.9 1012.4 0.0
31/10:30am 30.9 28.4 1.3 15 14.7 SSW 4 9 2 5 1013.3 1012.8 0.0
31/10:00am 28.8 25.7 1.3 17 13.5 SE 7 15 4 8 1013.5 1013.0 0.0
31/09:30am 26.3 23.5 2.3 21 11.8 SSE 6 9 3 5 1013.8 1013.3 0.0
31/09:00am 24.3 22.3 4.6 28 9.9 ESE 4 9 2 5 1014.1 1013.6 0.0
31/08:30am 20.9 19.7 4.5 34 8.1 CALM 0 4 0 2 1014.3 1013.8 0.0
31/08:00am 18.3 17.3 5.5 43 6.3 CALM 0 0 0 0 1014.1 1013.6 0.0
31/07:30am 15.4 14.4 5.6 52 4.7 CALM 0 0 0 0 1014.3 1013.8 0.0
31/07:00am 11.2 10.1 4.9 65 2.9 CALM 0 0 0 0 1014.2 1013.7 0.0
31/06:30am 10.0 8.8 4.8 70 2.4 CALM 0 0 0 0 1014.2 1013.7 0.0
31/06:00am 8.5 7.1 3.8 72 2.1 CALM 0 0 0 0 1014.0 1013.5 0.0
31/05:30am 9.5 8.2 4.1 69 2.4 CALM 0 0 0 0 1013.7 1013.2 0.0
31/05:00am 9.9 8.6 4.3 68 2.5 CALM 0 0 0 0 1013.6 1013.1 0.0
31/04:30am 9.6 8.3 4.2 69 2.4 CALM 0 0 0 0 1013.5 1013.0 0.0
31/04:00am 10.7 9.5 4.8 67 2.7 CALM 0 0 0 0 1013.5 1013.0 0.0
31/03:30am 10.6 9.5 4.9 68 2.6 CALM 0 0 0 0 1013.5 1013.0 0.0
31/03:00am 10.7 9.3 3.7 62 3.1 CALM 0 0 0 0 1013.4 1012.9 0.0
31/02:30am 11.4 9.9 3.2 57 3.6 CALM 0 0 0 0 1013.6 1013.1 0.0
31/02:00am 11.8 10.3 3.1 55 3.9 CALM 0 0 0 0 1013.6 1013.1 0.0
31/01:30am 12.5 10.9 2.7 51 4.3 CALM 0 0 0 0 1013.8 1013.3 0.0
31/01:00am 13.0 11.4 2.5 49 4.7 CALM 0 0 0 0 1014.1 1013.6 0.0
31/12:30am 13.2 11.2 2.4 48 4.8 NNW 2 6 1 3 1014.1 1013.6 0.0
31/12:00am 14.4 12.5 2.6 45 5.3 N 2 6 1 3 1014.3 1013.8 0.0
 
Date/Time
EDT
Temp
°C
App
Temp
°C
Dew
Point
Rel
Hum
%
Delta-T
°C
Wind Press
QNH
hPa
Press
MSL
hPa
Rain
since 9 am
mm
Dir
 
Spd
km/h
Gust
km/h
Spd
kts
Gust
kts
30/11:30pm 14.6 13.1 2.8 45 5.3 CALM 0 0 0 0 1014.1 1013.6 0.0
30/11:00pm 15.1 12.7 2.3 42 5.8 ESE 4 7 2 4 1013.9 1013.4 0.0
30/10:30pm 16.6 12.6 0.7 34 7.0 W 11 15 6 8 1013.6 1013.1 0.0
30/10:00pm 18.1 16.4 1.6 33 7.5 CALM 0 11 0 6 1013.4 1012.9 0.0
30/09:30pm 19.4 17.4 -0.1 27 8.7 CALM 0 0 0 0 1013.1 1012.6 0.0
30/09:00pm 20.3 17.1 -0.3 25 9.2 N 6 7 3 4 1012.8 1012.3 0.0
30/08:30pm 21.1 17.7 -0.8 23 9.7 NW 7 9 4 5 1012.4 1011.9 0.0
30/08:00pm 24.4 20.9 -1.4 18 11.6 NW 7 9 4 5 1012.0 1011.5 0.0
30/07:30pm 27.1 23.9 -3.7 13 13.6 W 4 7 2 4 1011.7 1011.3 0.0
30/07:00pm 29.2 24.6 -4.3 11 14.9 W 11 19 6 10 1011.4 1011.0 0.0
30/06:30pm 31.5 26.4 -5.2 9 16.4 W 13 22 7 12 1011.2 1010.7 0.0
30/06:00pm 32.0 25.6 -4.8 9 16.6 W 20 26 11 14 1011.1 1010.6 0.0
30/05:30pm 32.9 26.6 -5.7 8 17.3 W 19 26 10 14 1011.0 1010.5 0.0
30/05:00pm 33.1 26.3 -5.5 8 17.4 WSW 22 33 12 18 1011.0 1010.5 0.0
30/04:30pm 33.2 25.4 -3.9 9 17.1 W 28 33 15 18 1011.0 1010.5 0.0
30/04:00pm 32.8 26.8 -2.8 10 16.7 WSW 19 37 10 20 1010.9 1010.4 0.0
30/03:30pm 32.8 27.2 -2.8 10 16.7 NW 17 22 9 12 1011.2 1010.7 0.0
30/03:00pm 31.4 27.3 -0.3 13 15.4 NW 11 17 6 9 1011.6 1011.2 0.0
30/02:30pm 32.0 27.3 1.2 14 15.4 WSW 15 22 8 12 1012.2 1011.7 0.0
30/02:00pm 31.5 27.3 1.8 15 14.9 SW 13 32 7 17 1012.7 1012.2 0.0
30/01:30pm 31.0 25.6 2.3 16 14.5 WNW 20 32 11 17 1013.2 1012.7 0.0
30/01:00pm 30.9 25.8 3.0 17 14.3 NNW 19 28 10 15 1013.4 1012.9 0.0
30/12:30pm 30.7 26.1 3.7 18 13.9 NNW 17 24 9 13 1013.8 1013.3 0.0
30/12:00pm 30.0 26.4 3.1 18 13.7 WSW 11 20 6 11 1014.4 1013.9 0.0
30/11:30am 29.8 26.0 3.7 19 13.4 W 13 24 7 13 1014.8 1014.3 0.0
30/11:00am 29.0 25.7 6.4 24 12.1 WNW 13 24 7 13 1015.2 1014.8 0.0
30/10:30am 26.9 26.1 9.7 34 9.6 N 4 13 2 7 1015.8 1015.4 0.0
30/10:00am 24.5 24.0 10.8 42 7.7 E 4 7 2 4 1015.9 1015.5 0.0
30/09:30am 22.9 22.4 11.9 50 6.3 ENE 6 11 3 6 1016.3 1015.9 0.0
30/09:00am 20.1 19.5 11.6 58 4.7 SE 6 9 3 5 1016.7 1016.2 0.0
30/08:30am 18.6 18.7 11.4 63 4.0 ESE 2 7 1 4 1016.5 1016.1 0.0
30/08:00am 16.3 16.8 11.5 73 2.6 CALM 0 4 0 2 1016.3 1015.9 0.0
30/07:30am 14.1 13.4 11.3 83 1.5 ENE 6 7 3 4 1016.3 1015.9 0.0
30/07:00am 11.0 10.9 9.6 91 0.7 CALM 0 0 0 0 1016.2 1015.8 0.0
30/06:30am 10.1 10.0 9.5 96 0.3 CALM 0 0 0 0 1015.9 1015.5 0.0
30/06:00am 9.1 8.7 8.2 94 0.4 CALM 0 0 0 0 1015.8 1015.4 0.0
30/05:30am 9.6 9.3 8.7 94 0.4 CALM 0 0 0 0 1015.6 1015.2 0.0
30/05:00am 9.8 9.5 8.7 93 0.5 CALM 0 0 0 0 1015.6 1015.2 0.0
30/04:30am 10.0 9.8 8.9 93 0.5 CALM 0 0 0 0 1015.5 1015.1 0.0
30/04:00am 10.2 9.2 8.8 91 0.7 NNW 4 7 2 4 1015.4 1015.0 0.0
30/03:30am 10.6 10.5 9.4 92 0.6 CALM 0 7 0 4 1015.4 1015.0 0.0
30/03:00am 11.2 11.2 9.8 91 0.7 CALM 0 0 0 0 1015.4 1015.0 0.0
30/02:30am 11.6 11.7 10.0 90 0.8 CALM 0 0 0 0 1015.5 1015.1 0.0
30/02:00am 11.9 10.8 9.8 87 1.1 NNE 6 7 3 4 1015.5 1015.1 0.0
30/01:30am 12.9 13.1 10.6 86 1.2 CALM 0 4 0 2 1015.6 1015.2 0.0
30/01:00am 14.3 14.9 11.8 85 1.4 CALM 0 4 0 2 1015.7 1015.3 0.0
30/12:30am 14.9 14.0 11.5 80 1.8 SSE 7 9 4 5 1016.0 1015.6 0.0
30/12:00am 15.7 15.2 12.1 79 2.0 ESE 6 7 3 4 1016.0 1015.6 0.0
 
Date/Time
EDT
Temp
°C
App
Temp
°C
Dew
Point
Rel
Hum
%
Delta-T
°C
Wind Press
QNH
hPa
Press
MSL
hPa
Rain
since 9 am
mm
Dir
 
Spd
km/h
Gust
km/h
Spd
kts
Gust
kts
29/11:30pm 16.1 15.1 12.3 78 2.1 SSE 9 13 5 7 1016.0 1015.6 0.0
29/11:00pm 16.5 15.4 11.9 74 2.5 SE 9 13 5 7 1015.8 1015.4 0.0
29/10:30pm 17.4 15.9 11.9 70 3.0 SSE 11 15 6 8 1015.5 1015.1 0.0
29/10:00pm 18.7 16.5 12.2 66 3.6 SE 15 20 8 11 1015.3 1014.9 0.0
29/09:30pm 19.4 17.5 11.7 61 4.3 SSE 13 17 7 9 1015.0 1014.5 0.0
29/09:00pm 20.2 17.5 10.3 53 5.4 SSE 15 20 8 11 1014.4 1013.9 0.0
29/08:30pm 21.6 17.9 8.1 42 7.1 S 17 22 9 12 1013.8 1013.3 0.0
29/08:00pm 21.9 20.5 3.6 30 8.9 CALM 0 0 0 0 1013.3 1012.8 0.0
29/07:30pm 23.3 21.0 2.7 26 10.0 ENE 4 7 2 4 1013.0 1012.5 0.0
29/07:00pm 27.2 24.6 3.0 21 12.1 ENE 6 7 3 4 1012.8 1012.3 0.0
29/06:30pm 28.6 25.6 2.0 18 13.2 E 7 9 4 5 1012.7 1012.2 0.0
29/06:00pm 28.9 25.9 2.2 18 13.3 NE 7 13 4 7 1012.7 1012.2 0.0
29/05:30pm 29.5 26.6 2.7 18 13.5 SSW 7 9 4 5 1012.8 1012.3 0.0
29/05:00pm 29.0 25.3 2.3 18 13.3 ESE 11 15 6 8 1012.8 1012.3 0.0
29/04:30pm 29.1 26.2 2.4 18 13.3 SSW 7 13 4 7 1013.0 1012.5 0.0
29/04:00pm 28.9 25.3 3.0 19 13.1 SW 11 19 6 10 1013.4 1012.9 0.0
29/03:30pm 28.6 25.7 2.7 19 13.0 E 7 19 4 10 1013.6 1013.1 0.0
29/03:00pm 28.6 25.1 3.5 20 12.7 S 11 19 6 10 1014.0 1013.5 0.0
29/02:30pm 28.2 24.0 3.8 21 12.4 ESE 15 24 8 13 1014.5 1014.0 0.0
29/02:00pm 27.8 24.7 3.5 21 12.3 S 9 17 5 9 1014.9 1014.4 0.0

Other Formats:

Comma delimited format used in spreadsheet applications
http://www.bom.gov.au/fwo/IDN60801/IDN60801.95758.axf

JavaScript Object Notation format (JSON) in row-major order
http://www.bom.gov.au/fwo/IDN60801/IDN60801.95758.json